sensor_id;sensor_type;location;lat;lon;timestamp;P1;durP1;ratioP1;P2;durP2;ratioP2
47866;SDS011;33628;50.806;11.586;2023-02-28T00:02:15;12.15;;;6.20;;
47866;SDS011;33628;50.806;11.586;2023-02-28T00:04:43;13.32;;;5.75;;
47866;SDS011;33628;50.806;11.586;2023-02-28T00:07:11;9.43;;;5.60;;
47866;SDS011;33628;50.806;11.586;2023-02-28T00:09:38;8.10;;;5.53;;
47866;SDS011;33628;50.806;11.586;2023-02-28T00:12:07;10.88;;;5.93;;
47866;SDS011;33628;50.806;11.586;2023-02-28T00:14:37;10.70;;;5.90;;
47866;SDS011;33628;50.806;11.586;2023-02-28T00:17:05;10.98;;;6.03;;
47866;SDS011;33628;50.806;11.586;2023-02-28T00:19:32;11.25;;;6.13;;
47866;SDS011;33628;50.806;11.586;2023-02-28T00:22:05;12.23;;;6.60;;
47866;SDS011;33628;50.806;11.586;2023-02-28T00:24:33;9.73;;;6.32;;
47866;SDS011;33628;50.806;11.586;2023-02-28T00:26:59;9.95;;;5.32;;
47866;SDS011;33628;50.806;11.586;2023-02-28T00:29:27;11.65;;;6.10;;
47866;SDS011;33628;50.806;11.586;2023-02-28T00:31:57;9.70;;;5.63;;
47866;SDS011;33628;50.806;11.586;2023-02-28T00:34:31;12.43;;;6.03;;
47866;SDS011;33628;50.806;11.586;2023-02-28T00:37:04;8.27;;;5.55;;
47866;SDS011;33628;50.806;11.586;2023-02-28T00:39:34;6.75;;;5.32;;
47866;SDS011;33628;50.806;11.586;2023-02-28T00:42:01;10.43;;;5.57;;
47866;SDS011;33628;50.806;11.586;2023-02-28T00:44:29;9.23;;;5.30;;
47866;SDS011;33628;50.806;11.586;2023-02-28T00:46:59;10.30;;;5.57;;
47866;SDS011;33628;50.806;11.586;2023-02-28T00:49:29;9.13;;;5.47;;
47866;SDS011;33628;50.806;11.586;2023-02-28T00:51:59;9.05;;;5.60;;
47866;SDS011;33628;50.806;11.586;2023-02-28T00:54:26;8.40;;;5.70;;
47866;SDS011;33628;50.806;11.586;2023-02-28T00:56:53;11.75;;;5.93;;
47866;SDS011;33628;50.806;11.586;2023-02-28T00:59:20;11.27;;;5.88;;
47866;SDS011;33628;50.806;11.586;2023-02-28T01:01:49;14.05;;;5.75;;
47866;SDS011;33628;50.806;11.586;2023-02-28T01:04:16;9.93;;;5.82;;
47866;SDS011;33628;50.806;11.586;2023-02-28T01:06:44;9.68;;;5.90;;
47866;SDS011;33628;50.806;11.586;2023-02-28T01:09:11;9.55;;;5.80;;
47866;SDS011;33628;50.806;11.586;2023-02-28T01:11:42;7.57;;;5.60;;
47866;SDS011;33628;50.806;11.586;2023-02-28T01:14:11;9.38;;;6.25;;
47866;SDS011;33628;50.806;11.586;2023-02-28T01:16:38;11.95;;;6.05;;
47866;SDS011;33628;50.806;11.586;2023-02-28T01:19:06;11.63;;;6.75;;
47866;SDS011;33628;50.806;11.586;2023-02-28T01:21:33;10.10;;;5.97;;
47866;SDS011;33628;50.806;11.586;2023-02-28T01:24:02;10.82;;;5.93;;
47866;SDS011;33628;50.806;11.586;2023-02-28T01:26:31;9.15;;;6.07;;
47866;SDS011;33628;50.806;11.586;2023-02-28T01:28:58;8.63;;;6.13;;
47866;SDS011;33628;50.806;11.586;2023-02-28T01:31:25;9.75;;;6.10;;
47866;SDS011;33628;50.806;11.586;2023-02-28T01:33:52;9.45;;;5.82;;
47866;SDS011;33628;50.806;11.586;2023-02-28T01:36:23;10.02;;;6.05;;
47866;SDS011;33628;50.806;11.586;2023-02-28T01:38:55;10.43;;;6.00;;
47866;SDS011;33628;50.806;11.586;2023-02-28T01:41:24;9.10;;;6.70;;
47866;SDS011;33628;50.806;11.586;2023-02-28T01:43:54;9.10;;;6.28;;
47866;SDS011;33628;50.806;11.586;2023-02-28T01:46:23;15.55;;;6.60;;
47866;SDS011;33628;50.806;11.586;2023-02-28T01:48:51;11.40;;;6.93;;
47866;SDS011;33628;50.806;11.586;2023-02-28T01:51:20;10.75;;;5.63;;
47866;SDS011;33628;50.806;11.586;2023-02-28T01:53:52;11.32;;;7.15;;
47866;SDS011;33628;50.806;11.586;2023-02-28T01:56:26;10.85;;;6.60;;
47866;SDS011;33628;50.806;11.586;2023-02-28T01:58:55;10.23;;;6.93;;
47866;SDS011;33628;50.806;11.586;2023-02-28T02:01:23;9.45;;;6.43;;
47866;SDS011;33628;50.806;11.586;2023-02-28T02:03:54;15.00;;;6.82;;
47866;SDS011;33628;50.806;11.586;2023-02-28T02:06:25;12.32;;;6.85;;
47866;SDS011;33628;50.806;11.586;2023-02-28T02:08:56;14.15;;;7.20;;
47866;SDS011;33628;50.806;11.586;2023-02-28T02:11:23;9.77;;;6.88;;
47866;SDS011;33628;50.806;11.586;2023-02-28T02:17:06;9.20;;;7.00;;
47866;SDS011;33628;50.806;11.586;2023-02-28T02:19:51;10.35;;;6.20;;
47866;SDS011;33628;50.806;11.586;2023-02-28T02:22:45;11.50;;;6.55;;
47866;SDS011;33628;50.806;11.586;2023-02-28T02:25:28;12.07;;;6.32;;
47866;SDS011;33628;50.806;11.586;2023-02-28T02:28:08;10.65;;;6.60;;
47866;SDS011;33628;50.806;11.586;2023-02-28T02:30:57;12.27;;;7.10;;
47866;SDS011;33628;50.806;11.586;2023-02-28T02:36:55;10.35;;;6.22;;
47866;SDS011;33628;50.806;11.586;2023-02-28T02:39:31;9.85;;;6.28;;
47866;SDS011;33628;50.806;11.586;2023-02-28T02:42:05;11.25;;;6.93;;
47866;SDS011;33628;50.806;11.586;2023-02-28T02:44:39;10.40;;;7.05;;
47866;SDS011;33628;50.806;11.586;2023-02-28T02:47:11;10.40;;;6.68;;
47866;SDS011;33628;50.806;11.586;2023-02-28T02:49:43;10.80;;;7.10;;
47866;SDS011;33628;50.806;11.586;2023-02-28T02:52:14;11.85;;;7.00;;
47866;SDS011;33628;50.806;11.586;2023-02-28T02:54:42;10.98;;;6.22;;
47866;SDS011;33628;50.806;11.586;2023-02-28T02:57:13;9.27;;;6.75;;
47866;SDS011;33628;50.806;11.586;2023-02-28T02:59:43;9.60;;;6.78;;
47866;SDS011;33628;50.806;11.586;2023-02-28T03:02:12;7.43;;;5.63;;
47866;SDS011;33628;50.806;11.586;2023-02-28T03:04:45;10.10;;;6.57;;
47866;SDS011;33628;50.806;11.586;2023-02-28T03:07:16;12.80;;;6.95;;
47866;SDS011;33628;50.806;11.586;2023-02-28T03:09:49;9.85;;;6.20;;
47866;SDS011;33628;50.806;11.586;2023-02-28T03:12:18;11.40;;;6.35;;
47866;SDS011;33628;50.806;11.586;2023-02-28T03:14:54;10.07;;;6.50;;
47866;SDS011;33628;50.806;11.586;2023-02-28T03:17:29;11.75;;;6.55;;
47866;SDS011;33628;50.806;11.586;2023-02-28T03:20:12;9.35;;;5.68;;
47866;SDS011;33628;50.806;11.586;2023-02-28T03:22:56;7.97;;;5.80;;
47866;SDS011;33628;50.806;11.586;2023-02-28T03:25:32;9.90;;;5.55;;
47866;SDS011;33628;50.806;11.586;2023-02-28T03:28:03;10.90;;;6.38;;
47866;SDS011;33628;50.806;11.586;2023-02-28T03:30:35;9.35;;;6.65;;
47866;SDS011;33628;50.806;11.586;2023-02-28T03:33:07;10.95;;;6.70;;
47866;SDS011;33628;50.806;11.586;2023-02-28T03:35:39;9.15;;;6.30;;
47866;SDS011;33628;50.806;11.586;2023-02-28T03:38:12;8.45;;;6.13;;
47866;SDS011;33628;50.806;11.586;2023-02-28T03:40:43;12.23;;;6.57;;
47866;SDS011;33628;50.806;11.586;2023-02-28T03:43:16;10.27;;;6.05;;
47866;SDS011;33628;50.806;11.586;2023-02-28T03:45:50;9.52;;;6.43;;
47866;SDS011;33628;50.806;11.586;2023-02-28T03:48:19;10.63;;;6.43;;
47866;SDS011;33628;50.806;11.586;2023-02-28T03:50:49;10.52;;;6.20;;
47866;SDS011;33628;50.806;11.586;2023-02-28T03:53:21;9.70;;;5.38;;
47866;SDS011;33628;50.806;11.586;2023-02-28T03:55:54;10.20;;;6.15;;
47866;SDS011;33628;50.806;11.586;2023-02-28T03:58:27;11.82;;;5.65;;
47866;SDS011;33628;50.806;11.586;2023-02-28T04:00:57;9.93;;;5.05;;
47866;SDS011;33628;50.806;11.586;2023-02-28T04:03:33;13.75;;;5.75;;
47866;SDS011;33628;50.806;11.586;2023-02-28T04:06:03;9.38;;;5.50;;
47866;SDS011;33628;50.806;11.586;2023-02-28T04:08:32;9.38;;;5.43;;
47866;SDS011;33628;50.806;11.586;2023-02-28T04:11:02;7.70;;;5.45;;
47866;SDS011;33628;50.806;11.586;2023-02-28T04:13:31;9.80;;;5.68;;
47866;SDS011;33628;50.806;11.586;2023-02-28T04:16:01;12.52;;;5.93;;
47866;SDS011;33628;50.806;11.586;2023-02-28T04:18:31;9.00;;;5.90;;
47866;SDS011;33628;50.806;11.586;2023-02-28T04:21:00;8.75;;;5.97;;
47866;SDS011;33628;50.806;11.586;2023-02-28T04:23:28;10.13;;;5.63;;
47866;SDS011;33628;50.806;11.586;2023-02-28T04:26:00;8.48;;;5.75;;
47866;SDS011;33628;50.806;11.586;2023-02-28T04:28:26;8.27;;;5.75;;
47866;SDS011;33628;50.806;11.586;2023-02-28T04:30:54;9.30;;;5.55;;
47866;SDS011;33628;50.806;11.586;2023-02-28T04:33:21;11.95;;;5.82;;
47866;SDS011;33628;50.806;11.586;2023-02-28T04:35:47;11.20;;;6.72;;
47866;SDS011;33628;50.806;11.586;2023-02-28T04:38:14;9.05;;;5.57;;
47866;SDS011;33628;50.806;11.586;2023-02-28T04:40:41;13.05;;;6.43;;
47866;SDS011;33628;50.806;11.586;2023-02-28T04:43:08;10.00;;;5.65;;
47866;SDS011;33628;50.806;11.586;2023-02-28T04:45:35;11.18;;;5.97;;
47866;SDS011;33628;50.806;11.586;2023-02-28T04:48:02;12.35;;;6.07;;
47866;SDS011;33628;50.806;11.586;2023-02-28T04:50:28;10.27;;;6.57;;
47866;SDS011;33628;50.806;11.586;2023-02-28T04:52:55;11.77;;;6.70;;
47866;SDS011;33628;50.806;11.586;2023-02-28T04:55:22;18.58;;;7.15;;
47866;SDS011;33628;50.806;11.586;2023-02-28T04:57:49;15.90;;;7.90;;
47866;SDS011;33628;50.806;11.586;2023-02-28T05:00:17;16.88;;;8.63;;
47866;SDS011;33628;50.806;11.586;2023-02-28T05:02:47;15.27;;;8.43;;
47866;SDS011;33628;50.806;11.586;2023-02-28T05:05:14;15.98;;;8.93;;
47866;SDS011;33628;50.806;11.586;2023-02-28T05:07:43;17.88;;;8.18;;
47866;SDS011;33628;50.806;11.586;2023-02-28T05:10:10;14.85;;;8.18;;
47866;SDS011;33628;50.806;11.586;2023-02-28T05:12:37;15.73;;;8.35;;
47866;SDS011;33628;50.806;11.586;2023-02-28T05:15:05;13.10;;;7.50;;
47866;SDS011;33628;50.806;11.586;2023-02-28T05:17:33;15.07;;;9.02;;
47866;SDS011;33628;50.806;11.586;2023-02-28T05:20:00;13.95;;;7.32;;
47866;SDS011;33628;50.806;11.586;2023-02-28T05:22:26;10.25;;;7.00;;
47866;SDS011;33628;50.806;11.586;2023-02-28T05:24:53;11.88;;;6.80;;
47866;SDS011;33628;50.806;11.586;2023-02-28T05:27:19;15.90;;;7.07;;
47866;SDS011;33628;50.806;11.586;2023-02-28T05:29:46;12.43;;;6.82;;
47866;SDS011;33628;50.806;11.586;2023-02-28T05:32:13;15.15;;;7.22;;
47866;SDS011;33628;50.806;11.586;2023-02-28T05:34:41;13.00;;;7.80;;
47866;SDS011;33628;50.806;11.586;2023-02-28T05:37:10;15.50;;;7.32;;
47866;SDS011;33628;50.806;11.586;2023-02-28T05:39:38;10.98;;;6.97;;
47866;SDS011;33628;50.806;11.586;2023-02-28T05:42:04;13.55;;;8.25;;
47866;SDS011;33628;50.806;11.586;2023-02-28T05:44:32;13.40;;;7.68;;
47866;SDS011;33628;50.806;11.586;2023-02-28T05:46:59;13.75;;;8.32;;
47866;SDS011;33628;50.806;11.586;2023-02-28T05:49:25;13.45;;;7.38;;
47866;SDS011;33628;50.806;11.586;2023-02-28T05:51:53;13.02;;;7.72;;
47866;SDS011;33628;50.806;11.586;2023-02-28T05:54:20;10.90;;;7.25;;
47866;SDS011;33628;50.806;11.586;2023-02-28T05:56:46;12.45;;;7.18;;
47866;SDS011;33628;50.806;11.586;2023-02-28T05:59:13;9.75;;;6.75;;
47866;SDS011;33628;50.806;11.586;2023-02-28T06:01:40;10.98;;;7.50;;
47866;SDS011;33628;50.806;11.586;2023-02-28T06:04:08;14.20;;;6.90;;
47866;SDS011;33628;50.806;11.586;2023-02-28T06:06:36;13.02;;;6.50;;
47866;SDS011;33628;50.806;11.586;2023-02-28T06:09:04;16.75;;;7.10;;
47866;SDS011;33628;50.806;11.586;2023-02-28T06:11:31;16.08;;;8.50;;
47866;SDS011;33628;50.806;11.586;2023-02-28T06:13:58;17.63;;;8.82;;
47866;SDS011;33628;50.806;11.586;2023-02-28T06:16:28;19.75;;;9.27;;
47866;SDS011;33628;50.806;11.586;2023-02-28T06:18:57;14.05;;;6.90;;
47866;SDS011;33628;50.806;11.586;2023-02-28T06:21:24;10.55;;;6.88;;
47866;SDS011;33628;50.806;11.586;2023-02-28T06:23:50;17.20;;;8.90;;
47866;SDS011;33628;50.806;11.586;2023-02-28T06:26:18;13.95;;;7.78;;
47866;SDS011;33628;50.806;11.586;2023-02-28T06:28:45;14.90;;;8.05;;
47866;SDS011;33628;50.806;11.586;2023-02-28T06:31:14;14.13;;;7.55;;
47866;SDS011;33628;50.806;11.586;2023-02-28T06:33:42;11.63;;;7.70;;
47866;SDS011;33628;50.806;11.586;2023-02-28T06:36:09;12.38;;;7.60;;
47866;SDS011;33628;50.806;11.586;2023-02-28T06:38:37;13.90;;;7.63;;
47866;SDS011;33628;50.806;11.586;2023-02-28T06:41:04;11.40;;;7.32;;
47866;SDS011;33628;50.806;11.586;2023-02-28T06:43:33;12.48;;;7.68;;
47866;SDS011;33628;50.806;11.586;2023-02-28T06:46:01;12.13;;;7.50;;
47866;SDS011;33628;50.806;11.586;2023-02-28T06:48:30;16.02;;;8.43;;
47866;SDS011;33628;50.806;11.586;2023-02-28T06:51:01;14.52;;;8.52;;
47866;SDS011;33628;50.806;11.586;2023-02-28T06:53:29;13.43;;;8.82;;
47866;SDS011;33628;50.806;11.586;2023-02-28T06:55:55;15.85;;;9.25;;
47866;SDS011;33628;50.806;11.586;2023-02-28T06:58:22;13.52;;;8.63;;
47866;SDS011;33628;50.806;11.586;2023-02-28T07:00:51;13.52;;;8.38;;
47866;SDS011;33628;50.806;11.586;2023-02-28T07:03:18;16.77;;;9.60;;
47866;SDS011;33628;50.806;11.586;2023-02-28T07:05:45;13.63;;;8.20;;
47866;SDS011;33628;50.806;11.586;2023-02-28T07:08:12;14.40;;;8.48;;
47866;SDS011;33628;50.806;11.586;2023-02-28T07:10:39;14.10;;;8.23;;
47866;SDS011;33628;50.806;11.586;2023-02-28T07:13:07;18.38;;;9.43;;
47866;SDS011;33628;50.806;11.586;2023-02-28T07:15:34;32.28;;;13.35;;
47866;SDS011;33628;50.806;11.586;2023-02-28T07:18:03;45.28;;;18.52;;
47866;SDS011;33628;50.806;11.586;2023-02-28T07:20:30;31.77;;;15.73;;
47866;SDS011;33628;50.806;11.586;2023-02-28T07:22:56;31.10;;;14.65;;
47866;SDS011;33628;50.806;11.586;2023-02-28T07:25:23;19.75;;;11.32;;
47866;SDS011;33628;50.806;11.586;2023-02-28T07:27:51;14.90;;;7.95;;
47866;SDS011;33628;50.806;11.586;2023-02-28T07:30:18;13.23;;;7.07;;
47866;SDS011;33628;50.806;11.586;2023-02-28T07:32:45;10.73;;;7.00;;
47866;SDS011;33628;50.806;11.586;2023-02-28T07:35:13;12.65;;;7.10;;
47866;SDS011;33628;50.806;11.586;2023-02-28T07:37:41;19.13;;;8.30;;
47866;SDS011;33628;50.806;11.586;2023-02-28T07:40:09;13.23;;;7.45;;
47866;SDS011;33628;50.806;11.586;2023-02-28T07:42:37;11.52;;;7.25;;
47866;SDS011;33628;50.806;11.586;2023-02-28T07:45:05;13.15;;;7.75;;
47866;SDS011;33628;50.806;11.586;2023-02-28T07:47:34;12.40;;;6.80;;
47866;SDS011;33628;50.806;11.586;2023-02-28T07:50:01;12.18;;;6.60;;
47866;SDS011;33628;50.806;11.586;2023-02-28T07:52:30;10.57;;;6.72;;
47866;SDS011;33628;50.806;11.586;2023-02-28T07:54:58;12.35;;;6.57;;
47866;SDS011;33628;50.806;11.586;2023-02-28T07:57:24;13.25;;;7.47;;
47866;SDS011;33628;50.806;11.586;2023-02-28T07:59:51;13.77;;;7.35;;
47866;SDS011;33628;50.806;11.586;2023-02-28T08:02:18;13.65;;;7.32;;
47866;SDS011;33628;50.806;11.586;2023-02-28T08:04:45;15.13;;;7.78;;
47866;SDS011;33628;50.806;11.586;2023-02-28T08:07:12;13.70;;;7.45;;
47866;SDS011;33628;50.806;11.586;2023-02-28T08:09:40;12.60;;;7.20;;
47866;SDS011;33628;50.806;11.586;2023-02-28T08:12:07;16.73;;;8.50;;
47866;SDS011;33628;50.806;11.586;2023-02-28T08:14:34;14.88;;;8.25;;
47866;SDS011;33628;50.806;11.586;2023-02-28T08:17:01;17.08;;;9.23;;
47866;SDS011;33628;50.806;11.586;2023-02-28T08:19:27;15.48;;;8.73;;
47866;SDS011;33628;50.806;11.586;2023-02-28T08:25:08;20.25;;;9.30;;
47866;SDS011;33628;50.806;11.586;2023-02-28T08:27:35;20.75;;;8.48;;
47866;SDS011;33628;50.806;11.586;2023-02-28T08:30:02;20.15;;;8.43;;
47866;SDS011;33628;50.806;11.586;2023-02-28T08:32:29;22.40;;;9.90;;
47866;SDS011;33628;50.806;11.586;2023-02-28T08:34:56;19.95;;;9.13;;
47866;SDS011;33628;50.806;11.586;2023-02-28T08:37:23;18.15;;;9.73;;
47866;SDS011;33628;50.806;11.586;2023-02-28T08:39:49;15.50;;;8.90;;
47866;SDS011;33628;50.806;11.586;2023-02-28T08:42:17;13.07;;;7.78;;
47866;SDS011;33628;50.806;11.586;2023-02-28T08:44:44;14.43;;;7.38;;
47866;SDS011;33628;50.806;11.586;2023-02-28T08:47:10;12.48;;;6.97;;
47866;SDS011;33628;50.806;11.586;2023-02-28T08:49:37;11.10;;;6.72;;
47866;SDS011;33628;50.806;11.586;2023-02-28T08:52:04;9.52;;;6.43;;
47866;SDS011;33628;50.806;11.586;2023-02-28T08:54:31;11.85;;;6.70;;
47866;SDS011;33628;50.806;11.586;2023-02-28T08:56:59;13.88;;;6.97;;
47866;SDS011;33628;50.806;11.586;2023-02-28T08:59:27;10.75;;;5.90;;
47866;SDS011;33628;50.806;11.586;2023-02-28T09:01:54;8.18;;;5.28;;
47866;SDS011;33628;50.806;11.586;2023-02-28T09:04:21;7.97;;;4.88;;
47866;SDS011;33628;50.806;11.586;2023-02-28T09:06:48;7.88;;;5.38;;
47866;SDS011;33628;50.806;11.586;2023-02-28T09:09:14;9.60;;;5.65;;
47866;SDS011;33628;50.806;11.586;2023-02-28T09:11:41;10.15;;;5.55;;
47866;SDS011;33628;50.806;11.586;2023-02-28T09:14:08;11.93;;;5.78;;
47866;SDS011;33628;50.806;11.586;2023-02-28T09:16:36;9.02;;;5.30;;
47866;SDS011;33628;50.806;11.586;2023-02-28T09:19:02;8.05;;;4.55;;
47866;SDS011;33628;50.806;11.586;2023-02-28T09:21:29;6.97;;;4.50;;
47866;SDS011;33628;50.806;11.586;2023-02-28T09:23:56;9.90;;;5.13;;
47866;SDS011;33628;50.806;11.586;2023-02-28T09:26:23;9.30;;;5.35;;
47866;SDS011;33628;50.806;11.586;2023-02-28T09:28:51;7.85;;;5.18;;
47866;SDS011;33628;50.806;11.586;2023-02-28T09:31:19;8.13;;;4.97;;
47866;SDS011;33628;50.806;11.586;2023-02-28T09:33:48;7.95;;;4.45;;
47866;SDS011;33628;50.806;11.586;2023-02-28T09:36:15;9.98;;;4.78;;
47866;SDS011;33628;50.806;11.586;2023-02-28T09:38:42;9.63;;;4.80;;
47866;SDS011;33628;50.806;11.586;2023-02-28T09:41:11;7.97;;;4.53;;
47866;SDS011;33628;50.806;11.586;2023-02-28T09:43:41;9.57;;;5.00;;
47866;SDS011;33628;50.806;11.586;2023-02-28T09:46:14;9.48;;;5.38;;
47866;SDS011;33628;50.806;11.586;2023-02-28T09:48:52;7.07;;;4.60;;
47866;SDS011;33628;50.806;11.586;2023-02-28T09:51:28;8.20;;;5.18;;
47866;SDS011;33628;50.806;11.586;2023-02-28T09:53:59;9.50;;;5.35;;
47866;SDS011;33628;50.806;11.586;2023-02-28T09:56:27;6.45;;;4.55;;
47866;SDS011;33628;50.806;11.586;2023-02-28T09:58:58;8.73;;;3.53;;
47866;SDS011;33628;50.806;11.586;2023-02-28T10:01:29;6.63;;;4.15;;
47866;SDS011;33628;50.806;11.586;2023-02-28T10:04:00;6.97;;;4.18;;
47866;SDS011;33628;50.806;11.586;2023-02-28T10:06:32;6.68;;;3.45;;
47866;SDS011;33628;50.806;11.586;2023-02-28T10:09:02;7.95;;;4.20;;
47866;SDS011;33628;50.806;11.586;2023-02-28T10:11:32;6.53;;;3.67;;
47866;SDS011;33628;50.806;11.586;2023-02-28T10:14:01;9.43;;;4.35;;
47866;SDS011;33628;50.806;11.586;2023-02-28T10:16:32;8.75;;;4.25;;
47866;SDS011;33628;50.806;11.586;2023-02-28T10:19:03;5.97;;;3.97;;
47866;SDS011;33628;50.806;11.586;2023-02-28T10:21:31;7.60;;;4.07;;
47866;SDS011;33628;50.806;11.586;2023-02-28T10:24:19;7.90;;;4.35;;
47866;SDS011;33628;50.806;11.586;2023-02-28T10:26:47;5.77;;;4.20;;
47866;SDS011;33628;50.806;11.586;2023-02-28T10:29:14;5.50;;;4.20;;
47866;SDS011;33628;50.806;11.586;2023-02-28T10:31:41;8.65;;;4.45;;
47866;SDS011;33628;50.806;11.586;2023-02-28T10:34:09;7.07;;;4.65;;
47866;SDS011;33628;50.806;11.586;2023-02-28T10:36:38;8.23;;;4.38;;
47866;SDS011;33628;50.806;11.586;2023-02-28T10:42:18;6.80;;;4.15;;
47866;SDS011;33628;50.806;11.586;2023-02-28T10:44:46;7.97;;;4.28;;
47866;SDS011;33628;50.806;11.586;2023-02-28T10:47:14;6.13;;;4.00;;
47866;SDS011;33628;50.806;11.586;2023-02-28T10:49:47;5.25;;;3.17;;
47866;SDS011;33628;50.806;11.586;2023-02-28T10:52:15;6.57;;;4.40;;
47866;SDS011;33628;50.806;11.586;2023-02-28T10:55:13;8.15;;;5.38;;
47866;SDS011;33628;50.806;11.586;2023-02-28T10:57:41;7.68;;;4.50;;
47866;SDS011;33628;50.806;11.586;2023-02-28T11:00:12;9.80;;;4.63;;
47866;SDS011;33628;50.806;11.586;2023-02-28T11:02:42;10.13;;;5.97;;
47866;SDS011;33628;50.806;11.586;2023-02-28T11:07:59;9.45;;;5.43;;
47866;SDS011;33628;50.806;11.586;2023-02-28T11:10:30;11.35;;;5.70;;
47866;SDS011;33628;50.806;11.586;2023-02-28T11:13:00;8.43;;;5.40;;
47866;SDS011;33628;50.806;11.586;2023-02-28T11:15:28;9.82;;;5.00;;
47866;SDS011;33628;50.806;11.586;2023-02-28T11:17:56;9.30;;;6.15;;
47866;SDS011;33628;50.806;11.586;2023-02-28T11:20:25;8.32;;;5.32;;
47866;SDS011;33628;50.806;11.586;2023-02-28T11:22:55;12.77;;;6.65;;
47866;SDS011;33628;50.806;11.586;2023-02-28T11:25:23;11.80;;;6.03;;
47866;SDS011;33628;50.806;11.586;2023-02-28T11:27:52;11.57;;;5.40;;
47866;SDS011;33628;50.806;11.586;2023-02-28T11:30:27;9.57;;;5.35;;
47866;SDS011;33628;50.806;11.586;2023-02-28T11:32:59;10.30;;;5.47;;
47866;SDS011;33628;50.806;11.586;2023-02-28T11:35:27;8.20;;;5.15;;
47866;SDS011;33628;50.806;11.586;2023-02-28T11:37:58;9.90;;;5.07;;
47866;SDS011;33628;50.806;11.586;2023-02-28T11:40:27;9.00;;;5.50;;
47866;SDS011;33628;50.806;11.586;2023-02-28T11:42:59;12.00;;;5.82;;
47866;SDS011;33628;50.806;11.586;2023-02-28T11:45:41;11.90;;;5.43;;
47866;SDS011;33628;50.806;11.586;2023-02-28T11:48:14;10.70;;;5.63;;
47866;SDS011;33628;50.806;11.586;2023-02-28T11:50:47;7.03;;;4.63;;
47866;SDS011;33628;50.806;11.586;2023-02-28T11:53:21;9.52;;;5.82;;
47866;SDS011;33628;50.806;11.586;2023-02-28T11:55:52;6.85;;;4.53;;
47866;SDS011;33628;50.806;11.586;2023-02-28T11:58:24;8.15;;;5.03;;
47866;SDS011;33628;50.806;11.586;2023-02-28T12:01:08;7.60;;;5.55;;
47866;SDS011;33628;50.806;11.586;2023-02-28T12:03:45;7.97;;;4.75;;
47866;SDS011;33628;50.806;11.586;2023-02-28T12:06:22;8.48;;;5.18;;
47866;SDS011;33628;50.806;11.586;2023-02-28T12:08:56;5.70;;;4.30;;
47866;SDS011;33628;50.806;11.586;2023-02-28T12:11:31;9.32;;;5.35;;
47866;SDS011;33628;50.806;11.586;2023-02-28T12:14:12;10.85;;;5.13;;
47866;SDS011;33628;50.806;11.586;2023-02-28T12:17:02;6.20;;;4.68;;
47866;SDS011;33628;50.806;11.586;2023-02-28T12:19:37;10.63;;;5.05;;
47866;SDS011;33628;50.806;11.586;2023-02-28T12:22:15;9.73;;;5.13;;
47866;SDS011;33628;50.806;11.586;2023-02-28T12:25:06;8.73;;;5.53;;
47866;SDS011;33628;50.806;11.586;2023-02-28T12:27:47;8.77;;;5.18;;
47866;SDS011;33628;50.806;11.586;2023-02-28T12:30:15;13.57;;;5.80;;
47866;SDS011;33628;50.806;11.586;2023-02-28T12:32:44;9.38;;;5.50;;
47866;SDS011;33628;50.806;11.586;2023-02-28T12:35:14;10.98;;;5.50;;
47866;SDS011;33628;50.806;11.586;2023-02-28T12:37:45;10.07;;;6.15;;
47866;SDS011;33628;50.806;11.586;2023-02-28T12:40:17;12.63;;;6.40;;
47866;SDS011;33628;50.806;11.586;2023-02-28T12:42:47;13.57;;;6.72;;
47866;SDS011;33628;50.806;11.586;2023-02-28T12:45:17;10.90;;;6.32;;
47866;SDS011;33628;50.806;11.586;2023-02-28T12:47:46;11.50;;;6.03;;
47866;SDS011;33628;50.806;11.586;2023-02-28T12:50:16;10.45;;;6.85;;
47866;SDS011;33628;50.806;11.586;2023-02-28T12:52:47;12.10;;;6.35;;
47866;SDS011;33628;50.806;11.586;2023-02-28T12:55:21;18.10;;;7.82;;
47866;SDS011;33628;50.806;11.586;2023-02-28T12:57:55;14.75;;;7.22;;
47866;SDS011;33628;50.806;11.586;2023-02-28T13:00:29;10.60;;;7.13;;
47866;SDS011;33628;50.806;11.586;2023-02-28T13:08:41;11.27;;;6.53;;
47866;SDS011;33628;50.806;11.586;2023-02-28T13:11:28;15.85;;;6.57;;
47866;SDS011;33628;50.806;11.586;2023-02-28T13:14:00;12.57;;;7.18;;
47866;SDS011;33628;50.806;11.586;2023-02-28T13:16:29;11.30;;;6.65;;
47866;SDS011;33628;50.806;11.586;2023-02-28T13:19:17;10.90;;;6.50;;
47866;SDS011;33628;50.806;11.586;2023-02-28T13:21:44;10.90;;;7.38;;
47866;SDS011;33628;50.806;11.586;2023-02-28T13:24:12;11.68;;;7.55;;
47866;SDS011;33628;50.806;11.586;2023-02-28T13:27:22;10.82;;;6.38;;
47866;SDS011;33628;50.806;11.586;2023-02-28T13:33:22;11.15;;;7.13;;
47866;SDS011;33628;50.806;11.586;2023-02-28T13:36:09;11.00;;;6.63;;
47866;SDS011;33628;50.806;11.586;2023-02-28T13:38:49;12.07;;;6.75;;
47866;SDS011;33628;50.806;11.586;2023-02-28T13:44:09;12.05;;;6.90;;
47866;SDS011;33628;50.806;11.586;2023-02-28T13:49:47;10.65;;;6.93;;
47866;SDS011;33628;50.806;11.586;2023-02-28T13:52:15;11.05;;;7.07;;
47866;SDS011;33628;50.806;11.586;2023-02-28T13:54:54;13.20;;;6.95;;
47866;SDS011;33628;50.806;11.586;2023-02-28T13:57:28;15.85;;;8.05;;
47866;SDS011;33628;50.806;11.586;2023-02-28T14:00:05;15.95;;;7.30;;
47866;SDS011;33628;50.806;11.586;2023-02-28T14:02:48;12.93;;;7.32;;
47866;SDS011;33628;50.806;11.586;2023-02-28T14:05:33;10.90;;;5.40;;
47866;SDS011;33628;50.806;11.586;2023-02-28T14:08:04;11.70;;;6.93;;
47866;SDS011;33628;50.806;11.586;2023-02-28T14:10:32;9.25;;;6.88;;
47866;SDS011;33628;50.806;11.586;2023-02-28T14:13:02;15.00;;;7.22;;
47866;SDS011;33628;50.806;11.586;2023-02-28T14:18:28;10.13;;;6.28;;
47866;SDS011;33628;50.806;11.586;2023-02-28T14:20:58;12.95;;;8.05;;
47866;SDS011;33628;50.806;11.586;2023-02-28T14:23:46;14.98;;;7.45;;
47866;SDS011;33628;50.806;11.586;2023-02-28T14:29:24;12.90;;;7.38;;
47866;SDS011;33628;50.806;11.586;2023-02-28T14:32:13;13.95;;;7.65;;
47866;SDS011;33628;50.806;11.586;2023-02-28T14:34:46;14.50;;;7.65;;
47866;SDS011;33628;50.806;11.586;2023-02-28T14:37:19;12.77;;;8.40;;
47866;SDS011;33628;50.806;11.586;2023-02-28T14:39:50;14.15;;;7.85;;
47866;SDS011;33628;50.806;11.586;2023-02-28T14:42:30;12.07;;;7.20;;
47866;SDS011;33628;50.806;11.586;2023-02-28T14:44:58;13.13;;;7.15;;
47866;SDS011;33628;50.806;11.586;2023-02-28T14:47:27;15.10;;;8.60;;
47866;SDS011;33628;50.806;11.586;2023-02-28T14:49:57;16.13;;;8.65;;
47866;SDS011;33628;50.806;11.586;2023-02-28T14:52:24;16.75;;;9.00;;
47866;SDS011;33628;50.806;11.586;2023-02-28T14:54:56;15.07;;;7.43;;
47866;SDS011;33628;50.806;11.586;2023-02-28T14:57:24;15.23;;;7.85;;
47866;SDS011;33628;50.806;11.586;2023-02-28T14:59:59;13.57;;;8.20;;
47866;SDS011;33628;50.806;11.586;2023-02-28T15:02:30;12.45;;;7.63;;
47866;SDS011;33628;50.806;11.586;2023-02-28T15:05:00;14.82;;;8.95;;
47866;SDS011;33628;50.806;11.586;2023-02-28T15:07:43;13.43;;;8.85;;
47866;SDS011;33628;50.806;11.586;2023-02-28T15:10:11;13.85;;;8.35;;
47866;SDS011;33628;50.806;11.586;2023-02-28T15:12:42;15.00;;;8.30;;
47866;SDS011;33628;50.806;11.586;2023-02-28T15:15:15;16.77;;;9.32;;
47866;SDS011;33628;50.806;11.586;2023-02-28T15:17:46;16.40;;;8.55;;
47866;SDS011;33628;50.806;11.586;2023-02-28T15:20:16;13.88;;;8.27;;
47866;SDS011;33628;50.806;11.586;2023-02-28T15:22:43;12.10;;;7.95;;